Laughlin A F B, Texas
Current Conditions -  °F | °C
As of 1:08 PM on Friday 21 Nov 2014 (Local Time) from KDLF Reporting Station
Overcast Overcast  
Wind Chill: 66°   Ceiling: 1300
Heat Index: 66°   Visibility: 10mi
Dew Point: 66°   Wind: 7mph
Humidity: 100%   Direction: 360°N
Pressure: 30"   Gusts: NA
Location:  29.3564°N, 100.7927°W
Report Text: KDLF 211908Z AUTO 36006KT 10SM SCT009 BKN013 BKN020 BKN028 OVC034 19/19 A3000 RMK AO2 CIG 010V028 BKN013 V SCT CIG 008 RWY31 $
Loading
Personal Weather Stations






























Interactive Weather Map New forecast layout! Learn more

10-Day Weather Forecast

Advertisements
Track Severe Weather on mobile